Home > Products > Valid Products > TAF

000
FTUS44 KBRO 241100
TAFMFE
TAF
KMFE 241124Z 2412/2512 32003KT P6SM SKC
      TEMPO 2412/2415 5SM BR
     FM241500 06005KT P6SM FEW250=



000
FTUS44 KBRO 241100
TAFHRL
TAF
KHRL 241124Z 2412/2512 35005KT P6SM SKC
      TEMPO 2412/2415 5SM BR
     FM241500 03008KT P6SM FEW250=



000
FTUS44 KBRO 241100
TAFBRO
TAF
KBRO 241124Z 2412/2512 33005KT P6SM FEW250=



000
FTUS44 KBRO 240500
TAFBRO
TAF
KBRO 240520Z 2406/2506 36004KT P6SM FEW250=



000
FTUS44 KBRO 240500
TAFHRL
TAF
KHRL 240520Z 2406/2506 33003KT P6SM FEW250
      TEMPO 2412/2415 5SM BR
     FM241500 03008KT P6SM FEW250=



000
FTUS44 KBRO 240500
TAFMFE
TAF
KMFE 240520Z 2406/2506 06005KT P6SM FEW250
      TEMPO 2412/2415 5SM BR
     FM241500 06005KT P6SM FEW250=



000
FTUS44 KBRO 232300
TAFBRO
TAF
KBRO 232320Z 2400/2424 03007KT P6SM FEW040 SCT250=



000
FTUS44 KBRO 232300
TAFMFE
TAF
KMFE 232320Z 2400/2424 03007KT P6SM FEW040 SCT250=



000
FTUS44 KBRO 232300
TAFHRL
TAF
KHRL 232320Z 2400/2424 03007KT P6SM FEW040 SCT250=



000
FTUS44 KBRO 231700
TAFMFE
TAF
KMFE 231722Z 2318/2418 03007KT P6SM FEW040 SCT250=



000
FTUS44 KBRO 231700
TAFBRO
TAF
KBRO 231722Z 2318/2418 03007KT P6SM FEW040 SCT250=



000
FTUS44 KBRO 231700
TAFHRL
TAF
KHRL 231722Z 2318/2418 03007KT P6SM FEW040 SCT250=



000
FTUS44 KBRO 231100
TAFBRO
TAF
KBRO 231132Z 2312/2412 03006KT P6SM FEW040=



000
FTUS44 KBRO 231100
TAFHRL
TAF
KHRL 231132Z 2312/2412 03006KT P6SM FEW040 BKN090=



000
FTUS44 KBRO 231100
TAFMFE
TAF
KMFE 231132Z 2312/2412 02006KT P6SM FEW040 BKN090=



000
FTUS44 KBRO 230500
TAFHRL
TAF
KHRL 230527Z 2306/2406 04005KT P6SM FEW030 FEW200
     FM231800 04010KT P6SM SCT030
     FM232300 03006KT P6SM FEW050=



000
FTUS44 KBRO 230500
TAFBRO
TAF
KBRO 230527Z 2306/2406 03004KT P6SM FEW020 FEW200
     FM231800 05010KT P6SM SCT040
     FM232300 03006KT P6SM FEW050=



000
FTUS44 KBRO 230500
TAFMFE
TAF
KMFE 230527Z 2306/2406 02003KT P6SM SCT090 BKN100
     FM230900 36002KT 4SM BR SCT060
     FM231500 04008KT P6SM SCT030=



000
FTUS44 KBRO 222300
TAFMFE
TAF
KMFE 222320Z 2300/2324 07013KT P6SM VCSH SCT045 OVC060
     FM230100 07006KT P6SM SCT030 SCT060
     FM230600 04002KT P6SM SCT050
     FM230900 36002KT 4SM BR SCT060
     FM231500 03005KT P6SM SCT030=



000
FTUS44 KBRO 222300
TAFHRL
TAF
KHRL 222320Z 2300/2324 08010KT P6SM SCT035 BKN150
     FM230600 04005KT P6SM SCT050
     FM230900 36005KT P6SM SCT060
     FM231300 03005KT P6SM SCT030=



000
FTUS44 KBRO 222300
TAFBRO
TAF
KBRO 222320Z 2300/2324 07011KT P6SM BKN035 OVC050
     FM230600 04005KT P6SM SCT050
     FM231500 03010KT P6SM SCT030=



000
FTUS44 KBRO 222000 AAA
TAFMFE
TAF AMD
KMFE 222010Z 2220/2318 05007KT P6SM VCSH SCT045 OVC060
      TEMPO 2220/2223 BKN030
     FM230100 07006KT P6SM SCT030 SCT060
     FM230600 04005KT P6SM SCT050
     FM230900 36005KT P6SM SCT060
     FM231500 03005KT P6SM SCT030=



000
FTUS44 KBRO 222000 AAA
TAFHRL
TAF AMD
KHRL 222009Z 2220/2318 07014KT P6SM SCT035 BKN150
     FM230100 07006KT P6SM SCT030 SCT060
     FM230600 04005KT P6SM SCT050
     FM230900 36005KT P6SM SCT060
     FM231300 03005KT P6SM SCT030=



000
FTUS44 KBRO 222000 AAA
TAFBRO
TAF AMD
KBRO 222008Z 2220/2318 07011KT P6SM VCSH BKN035 OVC050
     FM230100 07006KT P6SM SCT030 SCT060
     FM230600 04005KT P6SM SCT050
     FM230900 36005KT P6SM SCT060
     FM231300 03005KT P6SM SCT030=



000
FTUS44 KBRO 221700
TAFHRL
TAF
KHRL 221738Z 2218/2318 08010KT P6SM BKN029 BKN035
     FM230100 07006KT P6SM SCT030 SCT060
     FM230600 04005KT P6SM SCT050
     FM230900 36005KT P6SM SCT060
     FM231300 03005KT P6SM SCT030=



000
FTUS44 KBRO 221700
TAFBRO
TAF
KBRO 221738Z 2218/2318 07008KT P6SM VCSH BKN026 OVC030
     FM230100 07006KT P6SM SCT030 SCT060
     FM230600 04005KT P6SM SCT050
     FM230900 36005KT P6SM SCT060
     FM231300 03005KT P6SM SCT030=



000
FTUS44 KBRO 221700
TAFMFE
TAF
KMFE 221738Z 2218/2318 07006KT P6SM VCSH SCT022 SCT027 OVC060
      TEMPO 2218/2222 BKN027
     FM230100 07006KT P6SM SCT030 SCT060
     FM230600 04005KT P6SM SCT050
     FM230900 36005KT P6SM SCT060
     FM231500 03005KT P6SM SCT030=



000
FTUS44 KBRO 221700
TAFHRL
TAF
KHRL 221738Z 2218/2318 08010KT P6SM BKN029 BKN035
     FM230100 07006KT P6SM SCT030 SCT060
     FM230600 04005KT P6SM SCT050
     FM230900 36005KT P6SM SCT060
     FM231300 03005KT P6SM SCT030=



000
FTUS44 KBRO 221700
TAFMFE
TAF
KMFE 221738Z 2218/2318 07006KT P6SM VCSH SCT022 SCT027 OVC060
      TEMPO 2218/2222 BKN027
     FM230100 07006KT P6SM SCT030 SCT060
     FM230600 04005KT P6SM SCT050
     FM230900 36005KT P6SM SCT060
     FM231500 03005KT P6SM SCT030=



000
FTUS44 KBRO 221700
TAFBRO
TAF
KBRO 221738Z 2218/2318 07008KT P6SM VCSH BKN026 OVC030
     FM230100 07006KT P6SM SCT030 SCT060
     FM230600 04005KT P6SM SCT050
     FM230900 36005KT P6SM SCT060
     FM231300 03005KT P6SM SCT030=



000
FTUS44 KBRO 221400 AAB
TAFHRL
TAF AMD
KHRL 221454Z 2215/2312 21006KT P6SM VCSH SCT024 OVC050
      TEMPO 2215/2217 BKN024
     FM221700 07015KT P6SM VCSH SCT030 BKN060
     FM230200 06006KT P6SM SCT030 BKN060
     FM230600 04005KT P6SM FEW150=



000
FTUS44 KBRO 221400 AAD
TAFBRO
TAF AMD
KBRO 221453Z 2215/2312 20007KT P6SM VCSH SCT022 OVC100
      TEMPO 2215/2217 BKN022
     FM221700 06012KT P6SM VCSH SCT030 BKN060
     FM230100 07006KT P6SM SCT030 BKN060
     FM230600 04005KT P6SM FEW150=



000
FTUS44 KBRO 221300 AAC
TAFBRO
TAF AMD
KBRO 221334Z 2214/2312 00000KT P6SM VCSH SCT020 BKN080 OVC100
     FM221700 06012KT P6SM VCSH SCT030 BKN060
     FM230100 07006KT P6SM SCT030 BKN060
     FM230600 04005KT P6SM FEW150=



000
FTUS44 KBRO 221300 AAA
TAFHRL
TAF AMD
KHRL 221334Z 2214/2312 35003KT 6SM BR VCSH BKN060
     FM221700 07015KT P6SM VCSH SCT030 BKN060
     FM230200 06006KT P6SM SCT030 BKN060
     FM230600 04005KT P6SM FEW150=



000
FTUS44 KBRO 221200 AAB
TAFBRO
TAF AMD
KBRO 221219Z 2212/2312 04005KT P6SM VCSH SCT050 OVC150
      TEMPO 2212/2214 15020G24KT 2SM +SHRA BKN021 OVC045
     FM221500 06012KT P6SM VCSH SCT030 BKN060
     FM230100 07006KT P6SM SCT030 BKN060
     FM230600 04005KT P6SM FEW150=



000
FTUS44 KBRO 221200 AAA
TAFBRO
TAF AMD
KBRO 221210Z 2212/2312 04005KT P6SM VCSH SCT050 OVC150
      TEMPO 2212/2214 2SM +SHRA BKN021 OVC045
     FM221500 06012KT P6SM VCSH SCT030 BKN060
     FM230100 07006KT P6SM SCT030 BKN060
     FM230600 04005KT P6SM FEW150=



000
FTUS44 KBRO 221100 CCA
TAFBRO
TAF COR
KBRO 221156Z 2212/2312 04005KT P6SM VCSH SCT050 OVC150
      TEMPO 2212/2214 5SM +SHRA SCT025
     FM221500 06012KT P6SM VCSH SCT030 BKN060
     FM230100 07006KT P6SM SCT030 BKN060
     FM230600 04005KT P6SM FEW150=



000
FTUS44 KBRO 221100
TAFMFE
TAF
KMFE 221132Z 2212/2312 01005KT P6SM BKN045 OVC150
     FM221500 05007KT P6SM VCSH SCT030 BKN060
      TEMPO 2215/2218 5SM +SHRA
     FM221900 07012KT P6SM VCSH SCT030 BKN050
     FM230300 05006KT P6SM SCT030 BKN060=



000
FTUS44 KBRO 221100
TAFBRO
TAF
KBRO 221132Z 2212/2312 04005KT P6SM VCSH SCT050 OVC150
      TEMPO 2212/2214 6SM -RA SCT025
     FM221500 06012KT P6SM VCSH SCT030 BKN060
     FM230100 07006KT P6SM SCT030 BKN060
     FM230600 04005KT P6SM FEW150=



000
FTUS44 KBRO 221100
TAFHRL
TAF
KHRL 221132Z 2212/2312 05005KT P6SM VCSH BKN025 BKN050 OVC150
      TEMPO 2212/2214 6SM -RA BKN025
     FM221500 07015KT P6SM VCSH SCT030 BKN060
     FM230200 06006KT P6SM SCT030 BKN060
     FM230600 04005KT P6SM FEW150=



000
FTUS44 KBRO 220900 AAA
TAFBRO
TAF AMD
KBRO 220950Z 2210/2306 07005KT P6SM VCSH SCT030 BKN050 OVC150
      TEMPO 2210/2213 5SM +SHRA FEW009 SCT020
     FM221500 06012KT P6SM VCSH SCT030 BKN060
     FM230100 07006KT P6SM SCT030 BKN060=



000
FTUS44 KBRO 220900 AAA
TAFBRO
TAF AMD
KBRO 220950Z 2210/2306 07005KT P6SM VCSH SCT030 BKN050 OVC150
      TEMPO 2210/2213 5SM +SHRA FEW009 SCT020
     FM221500 06012KT P6SM VCSH SCT030 BKN060
     FM230100 07006KT P6SM SCT030 BKN060=



000
FTUS44 KBRO 220500
TAFMFE
TAF
KMFE 220524Z 2206/2306 03005KT P6SM FEW030 BKN150
      TEMPO 2209/2212 6SM BR SCT025
     FM221500 04007KT P6SM VCSH SCT030 BKN060
     FM221900 07015KT P6SM VCSH SCT030 BKN050
     FM230200 05005KT P6SM SCT030 BKN060=



000
FTUS44 KBRO 220500
TAFHRL
TAF
KHRL 220524Z 2206/2306 04006KT P6SM FEW060 OVC150
      TEMPO 2209/2212 6SM BR SCT030
     FM221500 06015KT P6SM VCSH SCT030 BKN060
     FM230200 06006KT P6SM SCT030 BKN060=



000
FTUS44 KBRO 220500
TAFBRO
TAF
KBRO 220524Z 2206/2306 04005KT P6SM VCSH SCT030 BKN050 OVC150
     FM221500 06012KT P6SM VCSH SCT030 BKN060
     FM230100 07006KT P6SM SCT030 BKN060=



000
FTUS44 KBRO 220500
TAFHRL
TAF
KHRL 220524Z 2206/2306 04006KT P6SM FEW060 OVC150
      TEMPO 2209/2212 6SM BR SCT030
     FM221500 06015KT P6SM VCSH SCT030 BKN060
     FM230200 06006KT P6SM SCT030 BKN060=



000
FTUS44 KBRO 220500
TAFBRO
TAF
KBRO 220524Z 2206/2306 04005KT P6SM VCSH SCT030 BKN050 OVC150
     FM221500 06012KT P6SM VCSH SCT030 BKN060
     FM230100 07006KT P6SM SCT030 BKN060=



000
FTUS44 KBRO 220500
TAFMFE
TAF
KMFE 220524Z 2206/2306 03005KT P6SM FEW030 BKN150
      TEMPO 2209/2212 6SM BR SCT025
     FM221500 04007KT P6SM VCSH SCT030 BKN060
     FM221900 07015KT P6SM VCSH SCT030 BKN050
     FM230200 05005KT P6SM SCT030 BKN060=



000
FTUS44 KBRO 212300 AAA
TAFBRO
TAF AMD
KBRO 212333Z 2200/2224 07007KT P6SM VCSH SCT030 BKN040 OVC150
      TEMPO 2200/2201 2SM +SHRA BKN025
     FM220400 03005KT P6SM SCT030 BKN150
     FM221400 04007KT P6SM VCSH SCT030 BKN060 PROB30 2214/2220 5SM
      -SHRA BKN030=



000
FTUS44 KBRO 212300
TAFMFE
TAF
KMFE 212324Z 2200/2224 00000KT P6SM VCSH SCT025 BKN060
     FM220300 03005KT P6SM SCT030 BKN150
     FM221500 04007KT P6SM VCSH SCT030 BKN060 PROB30 2216/2222 5SM
      -SHRA BKN030=



000
FTUS44 KBRO 212300
TAFMFE
TAF
KMFE 212324Z 2200/2224 00000KT P6SM VCSH SCT025 BKN060
     FM220300 03005KT P6SM SCT030 BKN150
     FM221500 04007KT P6SM VCSH SCT030 BKN060 PROB30 2216/2222 5SM
      -SHRA BKN030=



000
FTUS44 KBRO 212300
TAFBRO
TAF
KBRO 212324Z 2200/2224 07007KT P6SM VCSH SCT030 BKN040 OVC150
     FM220300 03005KT P6SM SCT030 BKN150
     FM221400 04007KT P6SM VCSH SCT030 BKN060 PROB30 2214/2220 5SM
      -SHRA BKN030=



000
FTUS44 KBRO 212300
TAFHRL
TAF
KHRL 212324Z 2200/2224 04007KT P6SM FEW026 SCT045 OVC070
     FM220300 03005KT P6SM SCT030 BKN150
     FM221400 04007KT P6SM VCSH SCT030 BKN060 PROB30 2214/2220 5SM
      -SHRA BKN030=



000
FTUS44 KBRO 212300
TAFBRO
TAF
KBRO 212324Z 2200/2224 07007KT P6SM VCSH SCT030 BKN040 OVC150
     FM220300 03005KT P6SM SCT030 BKN150
     FM221400 04007KT P6SM VCSH SCT030 BKN060 PROB30 2214/2220 5SM
      -SHRA BKN030=



000
FTUS44 KBRO 212300
TAFHRL
TAF
KHRL 212324Z 2200/2224 04007KT P6SM FEW026 SCT045 OVC070
     FM220300 03005KT P6SM SCT030 BKN150
     FM221400 04007KT P6SM VCSH SCT030 BKN060 PROB30 2214/2220 5SM
      -SHRA BKN030=



000
FTUS44 KBRO 212000 AAB
TAFHRL
TAF AMD
KHRL 212012Z 2120/2218 05009KT P6SM VCSH BKN035 OVC090
      TEMPO 2120/2122 3SM SHRA BKN020
     FM220000 04006KT P6SM VCSH SCT040 OVC100
     FM220600 03005KT P6SM SCT050 BKN100 PROB30 2209/2212 5SM -SHRA
      BKN030
     FM221200 04007KT P6SM VCSH SCT030 BKN150 PROB30 2212/2215 5SM
      -SHRA BKN030=



000
FTUS44 KBRO 212000 AAB
TAFMFE
TAF AMD
KMFE 212011Z 2120/2218 04008G17KT 5SM -RA BR SCT060 OVC080
      TEMPO 2120/2122 3SM RA BR BKN035
     FM220000 04006KT P6SM VCSH SCT040 OVC100
     FM220600 03005KT P6SM SCT050 BKN100 PROB30 2209/2212 5SM -SHRA
      BKN030
     FM221200 04007KT P6SM VCSH SCT030 BKN150 PROB30 2212/2215 5SM
      -SHRA BKN030=



000
FTUS44 KBRO 212000 AAA
TAFBRO
TAF AMD
KBRO 212009Z 2120/2218 05010KT P6SM VCSH BKN040 OVC090
     FM220000 04006KT P6SM VCSH SCT040 OVC100
     FM220600 03005KT P6SM SCT050 BKN100 PROB30 2209/2212 5SM -SHRA
      BKN030
     FM221200 04007KT P6SM VCSH SCT030 BKN150 PROB30 2212/2215 5SM
      -SHRA BKN030=



000
FTUS44 KBRO 211900 AAA
TAFHRL
TAF AMD
KHRL 211905Z 2119/2218 08009KT P6SM VCSH SCT035 SCT070 OVC090
      TEMPO 2119/2121 05020G24KT 4SM -SHRA BKN040
     FM220000 04006KT P6SM VCSH SCT040 OVC100
     FM220600 03005KT P6SM SCT050 BKN100 PROB30 2209/2212 5SM -SHRA
      BKN030
     FM221200 04007KT P6SM VCSH SCT030 BKN150 PROB30 2212/2215 5SM
      -SHRA BKN030=



000
FTUS44 KBRO 211800 AAA
TAFMFE
TAF AMD
KMFE 211815Z 2118/2218 02005KT P6SM VCSH SCT050 BKN070 BKN090
      TEMPO 2118/2120 2SM SHRA BKN040
     FM220000 04006KT P6SM VCSH SCT040 OVC100
     FM220600 03005KT P6SM SCT050 BKN100 PROB30 2209/2212 5SM -SHRA
      BKN030
     FM221200 04007KT P6SM VCSH SCT030 BKN150 PROB30 2212/2215 5SM
      -SHRA BKN030=



000
FTUS44 KBRO 211700
TAFHRL
TAF
KHRL 211739Z 2118/2218 08009KT P6SM VCSH SCT035 SCT070 OVC090
      TEMPO 2118/2120 4SM -SHRA BKN040
     FM220000 04006KT P6SM VCSH SCT040 OVC100
     FM220600 03005KT P6SM SCT050 BKN100 PROB30 2209/2212 5SM -SHRA
      BKN030
     FM221200 04007KT P6SM VCSH SCT030 BKN150 PROB30 2212/2215 5SM
      -SHRA BKN030=



000
FTUS44 KBRO 211700
TAFBRO
TAF
KBRO 211739Z 2118/2218 08012G17KT P6SM VCSH SCT035 SCT050 BKN070
      TEMPO 2118/2120 4SM -SHRA BKN040
     FM220000 04006KT P6SM VCSH SCT040 OVC100
     FM220600 03005KT P6SM SCT050 BKN100 PROB30 2209/2212 5SM -SHRA
      BKN030
     FM221200 04007KT P6SM VCSH SCT030 BKN150 PROB30 2212/2215 5SM
      -SHRA BKN030=



000
FTUS44 KBRO 211700
TAFMFE
TAF
KMFE 211739Z 2118/2218 02005KT P6SM VCSH SCT050 BKN070 BKN090
      TEMPO 2118/2120 4SM -SHRA BKN040
     FM220000 04006KT P6SM VCSH SCT040 OVC100
     FM220600 03005KT P6SM SCT050 BKN100 PROB30 2209/2212 5SM -SHRA
      BKN030
     FM221200 04007KT P6SM VCSH SCT030 BKN150 PROB30 2212/2215 5SM
      -SHRA BKN030=



000
FTUS44 KBRO 211600 AAA
TAFBRO
TAF AMD
KBRO 211602Z 2116/2212 09010KT P6SM -RA VCSH BKN028 BKN045 BKN060
      TEMPO 2116/2118 3SM SHRA
     FM212100 05010KT P6SM SCT040 SCT120
     FM220200 06005KT P6SM FEW050 BKN120=



000
FTUS44 KBRO 211600 AAA
TAFBRO
TAF AMD
KBRO 211602Z 2116/2212 09010KT P6SM -RA VCSH BKN028 BKN045 BKN060
      TEMPO 2116/2118 3SM SHRA
     FM212100 05010KT P6SM SCT040 SCT120
     FM220200 06005KT P6SM FEW050 BKN120=



000
FTUS44 KBRO 211500 AAC
TAFHRL
TAF AMD
KHRL 211554Z 2116/2212 03006KT P6SM VCSH SCT050
      TEMPO 2116/2117 06010G20KT 1SM +RA BR BKN050
     FM211700 07012KT P6SM VCSH SCT030 BKN050
     FM212200 06010KT P6SM SCT050 SCT120
     FM220200 05005KT P6SM FEW050 BKN120=



000
FTUS44 KBRO 211500 AAB
TAFHRL
TAF AMD
KHRL 211554Z 2116/2212 05006KT P6SM VCSH SCT050
      TEMPO 2116/2117 06010G20KT 1SM +RA BR BKN050
     FM211700 07012KT P6SM VCSH SCT030 BKN050
     FM212200 06010KT P6SM SCT050 SCT120
     FM220200 05005KT P6SM FEW050 BKN120=



000
FTUS44 KBRO 211500 AAC
TAFHRL
TAF AMD
KHRL 211554Z 2116/2212 03006KT P6SM VCSH SCT050
      TEMPO 2116/2117 06010G20KT 1SM +RA BR BKN050
     FM211700 07012KT P6SM VCSH SCT030 BKN050
     FM212200 06010KT P6SM SCT050 SCT120
     FM220200 05005KT P6SM FEW050 BKN120=



000
FTUS44 KBRO 211500 AAB
TAFHRL
TAF AMD
KHRL 211554Z 2116/2212 05006KT P6SM VCSH SCT050
      TEMPO 2116/2117 06010G20KT 1SM +RA BR BKN050
     FM211700 07012KT P6SM VCSH SCT030 BKN050
     FM212200 06010KT P6SM SCT050 SCT120
     FM220200 05005KT P6SM FEW050 BKN120=



000
FTUS44 KBRO 211500 AAA
TAFHRL
TAF AMD
KHRL 211553Z 2116/2212 03006KT P6SM VCSH SCT050
      TEMPO 2116/2117 1SM +RA BR BKN050
     FM211700 07012KT P6SM VCSH SCT030 BKN050
     FM212200 06010KT P6SM SCT050 SCT120
     FM220200 05005KT P6SM FEW050 BKN120=



000
FTUS44 KBRO 211500 AAA
TAFHRL
TAF AMD
KHRL 211553Z 2116/2212 03006KT P6SM VCSH SCT050
      TEMPO 2116/2117 1SM +RA BR BKN050
     FM211700 07012KT P6SM VCSH SCT030 BKN050
     FM212200 06010KT P6SM SCT050 SCT120
     FM220200 05005KT P6SM FEW050 BKN120=



000
FTUS44 KBRO 211500 AAA
TAFMFE
TAF AMD
KMFE 211511Z 2115/2212 02008KT P6SM VCSH FEW028
      TEMPO 2115/2119 -SHRA BKN030
     FM211900 07012KT P6SM VCSH SCT040 BKN060
     FM220200 05005KT P6SM FEW050 BKN120=



    US Dept of Commerce
    National Oceanic and Atmospheric Administration
    National Weather Service
    1325 East West Highway
    Silver Spring, MD 20910
    Page Author: NWS Internet Services Team
Disclaimer
Information Quality
Credits
Glossary
Privacy Policy
Freedom of Information Act (FOIA)
About Us
Career Opportunities